createdAt,value
2018-06-01T00:01:22.770Z,66.20
2018-06-01T00:03:48.793Z,63.30
2018-06-01T00:06:14.796Z,63.07
2018-06-01T00:08:41.010Z,57.97
2018-06-01T00:11:07.023Z,60.47
2018-06-01T00:13:34.011Z,61.53
2018-06-01T00:16:00.050Z,62.17
2018-06-01T00:18:26.080Z,72.57
2018-06-01T00:20:52.152Z,60.90
2018-06-01T00:23:18.202Z,59.63
2018-06-01T00:25:44.231Z,68.20
2018-06-01T00:28:10.250Z,63.03
2018-06-01T00:30:36.262Z,63.47
2018-06-01T00:33:02.325Z,83.13
2018-06-01T00:35:28.316Z,81.87
2018-06-01T00:37:54.330Z,71.07
2018-06-01T00:40:20.410Z,66.67
2018-06-01T00:42:46.458Z,64.80
2018-06-01T00:45:12.486Z,66.77
2018-06-01T00:47:38.492Z,68.17
2018-06-01T00:50:04.800Z,86.37
2018-06-01T00:52:30.838Z,76.43
2018-06-01T00:55:09.047Z,71.67
2018-06-01T00:57:35.137Z,83.47
2018-06-01T01:00:01.176Z,90.87
2018-06-01T01:02:27.196Z,81.43
2018-06-01T01:04:53.834Z,76.30
2018-06-01T01:07:19.827Z,89.10
2018-06-01T01:09:45.963Z,88.13
2018-06-01T01:12:12.033Z,90.83
2018-06-01T01:14:38.049Z,67.03
2018-06-01T01:17:04.051Z,87.37
2018-06-01T01:19:30.075Z,84.97
2018-06-01T01:21:56.067Z,72.53
2018-06-01T01:24:22.093Z,73.57
2018-06-01T01:26:48.137Z,90.60
2018-06-01T01:29:14.135Z,90.33
2018-06-01T01:31:40.134Z,81.50
2018-06-01T01:34:06.155Z,103.23
2018-06-01T01:36:32.187Z,93.93
2018-06-01T01:38:58.222Z,90.27
2018-06-01T01:41:24.245Z,83.53
2018-06-01T01:43:50.262Z,89.93
2018-06-01T01:46:16.267Z,112.50
2018-06-01T01:48:42.270Z,80.23
2018-06-01T01:51:08.309Z,95.70
2018-06-01T01:53:34.317Z,109.10
2018-06-01T01:56:00.342Z,84.53
2018-06-01T01:58:26.374Z,76.87
2018-06-01T02:00:52.383Z,79.53
2018-06-01T02:03:18.437Z,74.30
2018-06-01T02:05:44.444Z,91.57
2018-06-01T02:08:10.460Z,78.57
2018-06-01T02:10:36.496Z,104.60
2018-06-01T02:13:02.693Z,89.93
2018-06-01T02:15:28.755Z,118.03
2018-06-01T02:17:54.766Z,134.13
2018-06-01T02:20:20.789Z,92.53
2018-06-01T02:22:46.802Z,81.87
2018-06-01T02:25:12.850Z,109.17
2018-06-01T02:27:38.846Z,94.83
2018-06-01T02:30:04.851Z,90.87
2018-06-01T02:32:30.992Z,94.63
2018-06-01T02:34:57.007Z,114.53
2018-06-01T02:37:23.040Z,111.27
2018-06-01T02:39:49.056Z,81.40
2018-06-01T02:42:15.190Z,114.10
2018-06-01T02:44:41.724Z,89.43
2018-06-01T02:47:07.755Z,88.07
2018-06-01T02:49:33.771Z,86.17
2018-06-01T02:51:59.789Z,83.20
2018-06-01T02:54:25.954Z,110.80
2018-06-01T02:56:51.990Z,105.03
2018-06-01T02:59:18.011Z,112.07
2018-06-01T03:01:44.081Z,105.47
2018-06-01T03:04:10.138Z,91.80
2018-06-01T03:09:49.312Z,80.57
2018-06-01T03:12:15.417Z,84.60
2018-06-01T03:14:41.414Z,105.40
2018-06-01T03:17:07.424Z,112.37
2018-06-01T03:19:33.614Z,114.97
2018-06-01T03:21:59.688Z,110.70
2018-06-01T03:24:25.723Z,141.63
2018-06-01T03:26:51.758Z,103.40
2018-06-01T03:29:17.795Z,95.87
2018-06-01T03:31:43.856Z,95.03
2018-06-01T03:34:09.888Z,146.53
2018-06-01T03:36:35.925Z,132.83
2018-06-01T03:39:02.001Z,107.63
2018-06-01T03:41:28.016Z,123.27
2018-06-01T03:43:54.091Z,105.67
2018-06-01T03:46:20.105Z,131.03
2018-06-01T03:48:46.110Z,131.23
2018-06-01T03:51:12.114Z,157.10
2018-06-01T03:53:38.126Z,152.97
2018-06-01T03:56:04.200Z,152.40
2018-06-01T03:58:30.207Z,137.93
2018-06-01T04:00:56.236Z,142.43
2018-06-01T04:03:22.259Z,123.73
2018-06-01T04:05:48.267Z,128.30
2018-06-01T04:08:14.286Z,152.30
2018-06-01T04:10:40.269Z,115.03
2018-06-01T04:13:06.278Z,155.73
2018-06-01T04:15:32.342Z,127.50
2018-06-01T04:17:58.405Z,129.43
2018-06-01T04:20:24.442Z,138.30
2018-06-01T04:22:50.450Z,128.60
2018-06-01T04:25:16.489Z,136.53
2018-06-01T04:27:42.513Z,126.73
2018-06-01T04:30:08.541Z,134.83
2018-06-01T04:32:34.583Z,133.27
2018-06-01T04:35:00.603Z,105.30
2018-06-01T04:37:26.594Z,112.47
2018-06-01T04:39:52.633Z,124.07
2018-06-01T04:42:18.655Z,132.53
2018-06-01T04:44:44.669Z,121.93
2018-06-01T04:47:10.730Z,127.50
2018-06-01T04:49:36.746Z,125.40
2018-06-01T04:52:02.750Z,131.10
2018-06-01T04:54:28.765Z,108.83
2018-06-01T04:56:54.786Z,115.53
2018-06-01T04:59:20.885Z,121.77
2018-06-01T05:01:46.893Z,115.60
2018-06-01T05:04:12.916Z,130.67
2018-06-01T05:06:38.933Z,100.00
2018-06-01T05:09:05.187Z,91.87
2018-06-01T05:11:31.279Z,107.07
2018-06-01T05:13:57.437Z,114.97
2018-06-01T05:16:23.529Z,89.83
2018-06-01T05:18:49.566Z,93.90
2018-06-01T05:21:15.649Z,99.23
2018-06-01T05:23:41.763Z,109.57
2018-06-01T05:26:07.802Z,88.80
2018-06-01T05:28:33.807Z,102.57
2018-06-01T05:30:59.891Z,109.60
2018-06-01T05:33:25.939Z,98.53
2018-06-01T05:35:51.963Z,97.27
2018-06-01T05:38:17.978Z,91.60
2018-06-01T05:40:44.037Z,96.57
2018-06-01T05:43:10.051Z,81.17
2018-06-01T05:45:36.073Z,89.60
2018-06-01T05:48:02.099Z,84.80
2018-06-01T05:50:28.095Z,85.00
2018-06-01T05:52:54.136Z,83.17
2018-06-01T05:55:20.128Z,87.10
2018-06-01T05:57:46.154Z,80.00
2018-06-01T06:00:12.185Z,80.17
2018-06-01T06:02:38.204Z,78.13
2018-06-01T06:05:04.224Z,86.93
2018-06-01T06:07:30.217Z,82.23
2018-06-01T06:09:56.266Z,86.33
2018-06-01T06:12:22.314Z,80.07
2018-06-01T06:14:48.337Z,78.13
2018-06-01T06:17:14.337Z,73.93
2018-06-01T06:19:40.349Z,77.37
2018-06-01T06:22:06.366Z,74.30
2018-06-01T06:24:32.398Z,70.70
2018-06-01T06:26:58.401Z,71.63
2018-06-01T06:29:24.426Z,71.73
2018-06-01T06:31:50.426Z,73.13
2018-06-01T06:34:16.476Z,69.93
2018-06-01T06:36:42.528Z,66.50
2018-06-01T06:39:08.629Z,67.47
2018-06-01T06:41:34.642Z,62.97
2018-06-01T06:44:00.698Z,63.27
2018-06-01T06:46:26.729Z,63.00
2018-06-01T06:48:52.743Z,64.83
2018-06-01T06:51:18.819Z,63.70
2018-06-01T06:53:44.832Z,62.90
2018-06-01T06:56:10.923Z,63.70
2018-06-01T06:58:37.585Z,61.93
2018-06-01T07:01:03.613Z,61.93
2018-06-01T07:03:29.634Z,60.03
2018-06-01T07:05:55.682Z,55.40
2018-06-01T07:08:21.769Z,56.17
2018-06-01T07:10:47.795Z,54.57
2018-06-01T07:13:13.798Z,54.67
2018-06-01T07:15:40.326Z,54.87
2018-06-01T07:18:06.386Z,54.33
2018-06-01T07:20:32.440Z,55.03
2018-06-01T07:22:58.461Z,55.40
2018-06-01T07:25:24.482Z,54.37
2018-06-01T07:27:50.503Z,52.43
2018-06-01T07:30:16.525Z,53.53
2018-06-01T07:32:42.614Z,52.73
2018-06-01T07:35:08.634Z,51.57
2018-06-01T07:37:34.653Z,52.73
2018-06-01T07:40:00.671Z,53.63
2018-06-01T07:42:26.694Z,55.73
2018-06-01T07:44:52.737Z,55.27
2018-06-01T07:47:18.788Z,52.07
2018-06-01T07:49:44.862Z,51.63
2018-06-01T07:52:10.980Z,50.10
2018-06-01T07:54:37.014Z,48.20
2018-06-01T07:57:03.794Z,43.67
2018-06-01T07:59:29.803Z,39.23
2018-06-01T08:01:55.797Z,39.63
2018-06-01T08:04:22.346Z,38.27
2018-06-01T08:06:48.381Z,37.60
2018-06-01T08:09:14.444Z,38.87
2018-06-01T08:11:40.448Z,36.03
2018-06-01T08:14:06.459Z,36.70
2018-06-01T08:16:32.469Z,39.60
2018-06-01T08:18:58.489Z,36.77
2018-06-01T08:21:24.486Z,36.97
2018-06-01T08:23:50.488Z,34.63
2018-06-01T08:26:16.513Z,35.03
2018-06-01T08:28:42.523Z,36.23
2018-06-01T08:31:08.536Z,34.47
2018-06-01T08:33:34.537Z,34.27
2018-06-01T08:36:00.609Z,35.73
2018-06-01T08:38:26.608Z,36.30
2018-06-01T08:40:52.653Z,34.93
2018-06-01T08:43:18.716Z,36.27
2018-06-01T08:45:44.797Z,36.83
2018-06-01T08:48:10.885Z,37.70
2018-06-01T08:50:36.899Z,39.40
2018-06-01T08:53:02.890Z,41.07
2018-06-01T08:55:28.980Z,39.10
2018-06-01T08:57:55.037Z,40.10
2018-06-01T09:00:21.068Z,38.77
2018-06-01T09:02:47.123Z,40.50
2018-06-01T09:05:13.182Z,38.77
2018-06-01T09:07:39.368Z,39.83
2018-06-01T09:10:05.420Z,40.47
2018-06-01T09:12:31.465Z,38.30
2018-06-01T09:14:57.694Z,38.83
2018-06-01T09:17:24.727Z,37.27
2018-06-01T09:19:50.766Z,35.67
2018-06-01T09:22:16.875Z,38.30
2018-06-01T09:24:42.829Z,35.93
2018-06-01T09:27:08.864Z,36.30
2018-06-01T09:29:35.160Z,36.47
2018-06-01T09:32:01.259Z,35.10
2018-06-01T09:34:27.492Z,37.50
2018-06-01T09:36:53.509Z,36.90
2018-06-01T09:39:19.703Z,39.30
2018-06-01T09:41:45.859Z,35.00
2018-06-01T09:44:11.898Z,33.73
2018-06-01T09:46:37.965Z,32.27
2018-06-01T09:49:03.960Z,33.27
2018-06-01T09:51:30.101Z,32.97
2018-06-01T09:53:56.105Z,30.60
2018-06-01T09:56:22.121Z,30.10
2018-06-01T09:58:48.142Z,32.03
2018-06-01T10:01:14.235Z,32.37
2018-06-01T10:03:40.297Z,32.77
2018-06-01T10:06:06.334Z,31.83
2018-06-01T10:08:32.501Z,32.77
2018-06-01T10:10:58.554Z,35.03
2018-06-01T10:13:24.607Z,36.23
2018-06-01T10:15:50.677Z,32.20
2018-06-01T10:18:16.672Z,31.63
2018-06-01T10:20:42.663Z,32.93
2018-06-01T10:23:08.694Z,33.30
2018-06-01T10:25:34.717Z,29.97
2018-06-01T10:28:00.710Z,28.67
2018-06-01T10:30:26.719Z,30.20
2018-06-01T10:32:52.737Z,31.87
2018-06-01T10:35:18.762Z,29.70
2018-06-01T10:37:44.770Z,28.23
2018-06-01T10:40:11.131Z,27.53
2018-06-01T10:42:37.936Z,26.00
2018-06-01T10:45:03.934Z,24.60
2018-06-01T10:47:30.047Z,23.77
2018-06-01T10:49:56.065Z,23.07
2018-06-01T10:52:22.077Z,25.10
2018-06-01T10:54:48.142Z,25.13
2018-06-01T10:57:14.273Z,22.73
2018-06-01T10:59:40.327Z,22.73
2018-06-01T11:02:06.392Z,24.53
2018-06-01T11:04:32.511Z,22.37
2018-06-01T11:06:59.185Z,22.90
2018-06-01T11:09:25.213Z,25.37
2018-06-01T11:11:51.252Z,23.33
2018-06-01T11:14:17.346Z,20.60
2018-06-01T11:16:43.878Z,21.80
2018-06-01T11:19:09.933Z,21.30
2018-06-01T11:21:36.111Z,21.30
2018-06-01T11:24:02.102Z,19.53
2018-06-01T11:26:28.159Z,19.57
2018-06-01T11:28:54.161Z,20.00
2018-06-01T11:31:20.214Z,18.90
2018-06-01T11:33:46.245Z,19.67
2018-06-01T11:36:12.277Z,18.80
2018-06-01T11:38:38.295Z,19.43
2018-06-01T11:41:04.289Z,18.67
2018-06-01T11:43:30.302Z,18.20
2018-06-01T11:45:56.359Z,16.53
2018-06-01T11:48:22.350Z,15.50
2018-06-01T11:50:48.393Z,16.50
2018-06-01T11:53:14.395Z,16.37
2018-06-01T11:55:40.413Z,14.53
2018-06-01T11:58:06.427Z,13.83
2018-06-01T12:00:32.434Z,13.77
2018-06-01T12:02:58.449Z,13.50
2018-06-01T12:05:24.462Z,13.80
2018-06-01T12:07:50.462Z,14.60
2018-06-01T12:10:16.484Z,17.03
2018-06-01T12:12:42.497Z,16.83
2018-06-01T12:15:08.567Z,17.67
2018-06-01T12:17:34.594Z,16.13
2018-06-01T12:20:00.759Z,18.20
2018-06-01T12:22:26.799Z,17.53
2018-06-01T12:24:52.824Z,17.10
2018-06-01T12:27:18.955Z,17.13
2018-06-01T12:29:44.983Z,16.40
2018-06-01T12:32:10.994Z,17.50
2018-06-01T12:34:37.030Z,18.70
2018-06-01T12:37:03.146Z,18.50
2018-06-01T12:39:29.165Z,17.40
2018-06-01T12:41:55.179Z,18.93
2018-06-01T12:44:22.183Z,18.87
2018-06-01T12:46:48.199Z,20.70
2018-06-01T12:49:14.228Z,20.10
2018-06-01T12:51:40.236Z,20.30
2018-06-01T12:54:06.262Z,19.47
2018-06-01T12:56:32.292Z,19.83
2018-06-01T12:58:58.298Z,19.17
2018-06-01T13:01:24.349Z,19.93
2018-06-01T13:03:50.357Z,20.63
2018-06-01T13:06:16.355Z,23.90
2018-06-01T13:08:42.347Z,24.00
2018-06-01T13:11:08.365Z,26.00
2018-06-01T13:13:34.375Z,26.77
2018-06-01T13:16:00.369Z,29.87
2018-06-01T13:18:26.377Z,30.70
2018-06-01T13:20:52.376Z,32.53
2018-06-01T13:23:18.373Z,36.13
2018-06-01T13:25:44.361Z,35.23
2018-06-01T13:28:10.377Z,36.07
2018-06-01T13:30:36.397Z,37.57
2018-06-01T13:33:02.387Z,36.33
2018-06-01T13:35:28.559Z,38.53
2018-06-01T13:37:54.522Z,39.30
2018-06-01T13:40:20.547Z,38.80
2018-06-01T13:42:46.762Z,38.13
2018-06-01T13:45:12.838Z,40.37
2018-06-01T13:47:38.929Z,36.57
2018-06-01T13:50:04.925Z,38.03
2018-06-01T13:52:31.725Z,34.00
2018-06-01T13:54:57.854Z,34.80
2018-06-01T13:57:23.873Z,36.70
2018-06-01T13:59:49.897Z,35.70
2018-06-01T14:02:16.053Z,33.40
2018-06-01T14:04:42.127Z,35.53
2018-06-01T14:07:08.145Z,35.43
2018-06-01T14:09:34.217Z,35.38
2018-06-01T14:12:00.217Z,34.22
2018-06-01T14:14:26.232Z,35.60
2018-06-01T14:16:52.305Z,35.63
2018-06-01T14:19:18.364Z,38.03
2018-06-01T14:21:44.360Z,34.50
2018-06-01T14:24:10.378Z,34.30
2018-06-01T14:26:36.450Z,32.83
2018-06-01T14:29:02.410Z,32.70
2018-06-01T14:31:28.483Z,36.00
2018-06-01T14:33:54.554Z,36.00
2018-06-01T14:36:20.592Z,34.90
2018-06-01T14:38:46.610Z,37.67
2018-06-01T14:41:12.675Z,34.57
2018-06-01T14:43:38.709Z,33.70
2018-06-01T14:46:04.774Z,31.27
2018-06-01T14:48:30.819Z,34.57
2018-06-01T14:50:56.849Z,39.23
2018-06-01T14:53:22.906Z,42.73
2018-06-01T14:55:48.952Z,44.40
2018-06-01T14:58:14.983Z,42.77
2018-06-01T15:00:41.033Z,37.80
2018-06-01T15:03:07.159Z,39.87
2018-06-01T15:05:33.194Z,44.10
2018-06-01T15:07:59.226Z,43.07
2018-06-01T15:10:25.324Z,46.43
2018-06-01T15:12:51.462Z,44.70
2018-06-01T15:15:17.532Z,44.27
2018-06-01T15:17:43.578Z,45.60
2018-06-01T15:20:09.690Z,44.53
2018-06-01T15:22:35.836Z,45.03
2018-06-01T15:25:01.926Z,47.93
2018-06-01T15:27:28.064Z,41.70
2018-06-01T15:29:54.125Z,42.07
2018-06-01T15:32:20.196Z,40.40
2018-06-01T15:34:46.203Z,44.57
2018-06-01T15:37:12.273Z,36.47
2018-06-01T15:39:38.400Z,30.03
2018-06-01T15:42:04.602Z,37.33
2018-06-01T15:44:30.695Z,39.17
2018-06-01T15:46:56.726Z,38.77
2018-06-01T15:49:22.752Z,40.60
2018-06-01T15:51:48.821Z,30.50
2018-06-01T15:54:14.866Z,35.13
2018-06-01T15:56:40.970Z,34.07
2018-06-01T15:59:07.083Z,34.03
2018-06-01T16:01:33.110Z,35.10
2018-06-01T16:03:59.146Z,32.50
2018-06-01T16:06:25.163Z,33.73
2018-06-01T16:08:52.171Z,31.27
2018-06-01T16:11:18.235Z,30.00
2018-06-01T16:13:44.282Z,33.83
2018-06-01T16:16:10.372Z,34.53
2018-06-01T16:18:36.389Z,34.67
2018-06-01T16:21:02.419Z,35.57
2018-06-01T16:23:28.450Z,35.33
2018-06-01T16:25:54.484Z,33.00
2018-06-01T16:28:20.498Z,33.83
2018-06-01T16:30:46.550Z,32.87
2018-06-01T16:33:12.568Z,34.97
2018-06-01T16:35:38.689Z,33.53
2018-06-01T16:38:04.691Z,36.50
2018-06-01T16:40:30.794Z,37.53
2018-06-01T16:42:56.817Z,38.23
2018-06-01T16:45:22.881Z,34.40
2018-06-01T16:47:48.987Z,37.33
2018-06-01T16:50:14.985Z,34.87
2018-06-01T16:52:41.196Z,35.57
2018-06-01T16:55:07.223Z,33.30
2018-06-01T16:57:33.358Z,33.03
2018-06-01T16:59:59.551Z,36.60
2018-06-01T17:02:25.584Z,34.97
2018-06-01T17:04:51.705Z,37.93
2018-06-01T17:07:17.840Z,39.10
2018-06-01T17:09:44.836Z,37.30
2018-06-01T17:12:10.949Z,31.00
2018-06-01T17:14:36.981Z,30.67
2018-06-01T17:17:03.038Z,29.23
2018-06-01T17:19:29.105Z,31.63
2018-06-01T17:21:55.250Z,35.20
2018-06-01T17:24:21.258Z,35.53
2018-06-01T17:26:47.277Z,37.60
2018-06-01T17:29:14.171Z,36.90
2018-06-01T17:31:40.195Z,36.03
2018-06-01T17:34:06.244Z,35.13
2018-06-01T17:36:32.270Z,36.43
2018-06-01T17:38:58.296Z,37.20
2018-06-01T17:41:24.338Z,42.87
2018-06-01T17:43:50.369Z,37.60
2018-06-01T17:46:16.395Z,40.60
2018-06-01T17:48:42.424Z,42.17
2018-06-01T17:51:08.438Z,35.60
2018-06-01T17:53:34.510Z,35.90
2018-06-01T17:56:00.598Z,35.53
2018-06-01T17:58:26.615Z,34.43
2018-06-01T18:00:52.630Z,35.90
2018-06-01T18:03:18.663Z,36.67
2018-06-01T18:05:44.783Z,38.63
2018-06-01T18:08:10.779Z,41.33
2018-06-01T18:10:37.390Z,38.83
2018-06-01T18:13:03.569Z,38.13
2018-06-01T18:15:29.578Z,37.90
2018-06-01T18:17:55.627Z,40.30
2018-06-01T18:20:21.728Z,40.80
2018-06-01T18:22:47.876Z,39.93
2018-06-01T18:25:13.980Z,40.50
2018-06-01T18:27:40.019Z,43.73
2018-06-01T18:30:06.078Z,43.00
2018-06-01T18:32:32.224Z,48.70
2018-06-01T18:34:58.258Z,47.27
2018-06-01T18:37:24.303Z,47.07
2018-06-01T18:39:50.285Z,47.63
2018-06-01T18:42:16.310Z,52.97
2018-06-01T18:44:42.399Z,56.77
2018-06-01T18:47:08.422Z,50.73
2018-06-01T18:49:34.456Z,62.60
2018-06-01T18:52:00.500Z,56.10
2018-06-01T18:54:26.517Z,61.57
2018-06-01T18:56:52.544Z,60.63
2018-06-01T18:59:18.588Z,65.77
2018-06-01T19:01:44.609Z,61.43
2018-06-01T19:04:10.632Z,76.63
2018-06-01T19:06:37.309Z,70.63
2018-06-01T19:09:03.560Z,63.03
2018-06-01T19:11:29.663Z,68.50
2018-06-01T19:13:55.707Z,63.90
2018-06-01T19:16:21.729Z,67.67
2018-06-01T19:18:47.952Z,85.20
2018-06-01T19:21:14.081Z,74.73
2018-06-01T19:23:40.106Z,70.77
2018-06-01T19:26:06.118Z,81.97
2018-06-01T19:28:32.228Z,88.20
2018-06-01T19:30:58.244Z,90.30
2018-06-01T19:33:24.273Z,80.67
2018-06-01T19:35:50.316Z,85.87
2018-06-01T19:38:16.359Z,85.13
2018-06-01T19:40:42.361Z,81.50
2018-06-01T19:43:08.407Z,86.73
2018-06-01T19:45:34.440Z,102.27
2018-06-01T19:48:00.479Z,100.93
2018-06-01T19:50:26.534Z,107.20
2018-06-01T19:52:52.561Z,118.37
2018-06-01T19:55:18.572Z,122.83
2018-06-01T19:57:44.700Z,132.33
2018-06-01T20:00:10.741Z,123.77
2018-06-01T20:02:36.766Z,123.70
2018-06-01T20:05:02.945Z,132.17
2018-06-01T20:07:28.956Z,151.47
2018-06-01T20:09:55.020Z,152.20
2018-06-01T20:12:21.085Z,160.33
2018-06-01T20:14:47.153Z,173.40
2018-06-01T20:17:13.201Z,166.90
2018-06-01T20:19:39.214Z,192.53
2018-06-01T20:22:05.411Z,182.60
2018-06-01T20:24:31.486Z,184.47
2018-06-01T20:26:57.515Z,181.50
2018-06-01T20:29:23.621Z,198.00
2018-06-01T20:31:49.802Z,183.63
2018-06-01T20:34:15.926Z,181.17
2018-06-01T20:36:41.938Z,178.77
2018-06-01T20:39:08.535Z,183.20
2018-06-01T20:41:34.599Z,220.80
2018-06-01T20:44:00.626Z,220.93
2018-06-01T20:46:26.693Z,228.43
2018-06-01T20:48:52.699Z,198.30
2018-06-01T20:51:18.762Z,223.20
2018-06-01T20:53:44.803Z,209.53
2018-06-01T20:56:11.193Z,200.33
2018-06-01T20:58:37.218Z,190.87
2018-06-01T21:01:03.247Z,189.27
2018-06-01T21:03:29.284Z,188.07
2018-06-01T21:05:55.310Z,182.20
2018-06-01T21:08:21.385Z,192.30
2018-06-01T21:10:47.539Z,211.70
2018-06-01T21:13:13.665Z,167.37
2018-06-01T21:15:39.677Z,171.70
2018-06-01T21:18:05.750Z,182.93
2018-06-01T21:20:31.882Z,176.33
2018-06-01T21:22:58.011Z,162.17
2018-06-01T21:25:24.050Z,139.60
2018-06-01T21:27:50.078Z,135.73
2018-06-01T21:30:16.190Z,138.60
2018-06-01T21:32:42.221Z,152.33
2018-06-01T21:35:08.275Z,135.27
2018-06-01T21:37:34.308Z,138.37
2018-06-01T21:40:00.429Z,156.10
2018-06-01T21:42:26.496Z,174.37
2018-06-01T21:44:52.493Z,167.83
2018-06-01T21:47:18.485Z,150.33
2018-06-01T21:49:44.502Z,147.23
2018-06-01T21:52:10.522Z,126.80
2018-06-01T21:54:36.636Z,105.63
2018-06-01T21:57:02.684Z,110.00
2018-06-01T21:59:28.696Z,120.80
2018-06-01T22:01:54.714Z,138.13
2018-06-01T22:04:20.733Z,154.30
2018-06-01T22:06:46.742Z,142.17
2018-06-01T22:09:12.807Z,167.40
2018-06-01T22:11:38.909Z,164.17
2018-06-01T22:14:05.004Z,169.40
2018-06-01T22:16:30.997Z,164.70
2018-06-01T22:18:57.025Z,175.40
2018-06-01T22:21:23.056Z,155.63
2018-06-01T22:23:49.140Z,155.80
2018-06-01T22:26:15.167Z,148.77
2018-06-01T22:28:41.197Z,134.17
2018-06-01T22:31:07.295Z,158.87
2018-06-01T22:33:33.331Z,142.93
2018-06-01T22:35:59.374Z,142.00
2018-06-01T22:38:25.498Z,169.43
2018-06-01T22:40:51.828Z,162.37
2018-06-01T22:43:17.938Z,173.93
2018-06-01T22:45:44.021Z,130.23
2018-06-01T22:48:10.069Z,141.50
2018-06-01T22:50:36.220Z,104.63
2018-06-01T22:53:03.000Z,133.13
2018-06-01T22:55:29.033Z,120.70
2018-06-01T22:57:55.049Z,112.53
2018-06-01T23:00:23.063Z,103.87
2018-06-01T23:02:49.097Z,89.67
2018-06-01T23:05:15.108Z,93.03
2018-06-01T23:07:41.153Z,76.47
2018-06-01T23:10:07.255Z,79.23
2018-06-01T23:12:33.387Z,71.97
2018-06-01T23:14:59.408Z,78.43
2018-06-01T23:17:25.478Z,81.77
2018-06-01T23:19:51.600Z,74.20
2018-06-01T23:22:17.685Z,78.87
2018-06-01T23:24:43.795Z,63.50
2018-06-01T23:27:09.804Z,68.23
2018-06-01T23:29:35.987Z,90.23
2018-06-01T23:32:02.058Z,68.83
2018-06-01T23:34:28.104Z,69.83
2018-06-01T23:36:54.144Z,67.33
2018-06-01T23:39:20.256Z,64.27
2018-06-01T23:41:46.402Z,73.40
2018-06-01T23:44:12.430Z,74.73
2018-06-01T23:46:38.452Z,75.20
2018-06-01T23:49:04.635Z,75.27
2018-06-01T23:51:30.674Z,76.50
2018-06-01T23:53:56.722Z,82.93
2018-06-01T23:56:22.745Z,78.13
2018-06-01T23:58:48.810Z,88.43
